sensor_id;sensor_type;location;lat;lon;timestamp;pressure;altitude;pressure_sealevel;temperature;humidity
69855;BME280;57146;48.140;16.304;2023-06-10T00:01:12;98998.53;;;15.48;96.18
69855;BME280;57146;48.140;16.304;2023-06-10T00:03:39;98996.94;;;15.60;95.64
69855;BME280;57146;48.140;16.304;2023-06-10T00:06:06;98996.16;;;15.59;95.46
69855;BME280;57146;48.140;16.304;2023-06-10T00:08:33;99001.69;;;15.54;96.52
69855;BME280;57146;48.140;16.304;2023-06-10T00:11:00;98993.84;;;15.57;95.65
69855;BME280;57146;48.140;16.304;2023-06-10T00:13:28;98996.75;;;15.52;95.88
69855;BME280;57146;48.140;16.304;2023-06-10T00:15:55;98993.03;;;15.41;96.68
69855;BME280;57146;48.140;16.304;2023-06-10T00:18:21;98997.72;;;15.32;97.67
69855;BME280;57146;48.140;16.304;2023-06-10T00:20:48;98997.91;;;15.39;97.21
69855;BME280;57146;48.140;16.304;2023-06-10T00:23:15;99002.72;;;15.21;98.62
69855;BME280;57146;48.140;16.304;2023-06-10T00:25:42;99003.25;;;15.27;98.28
69855;BME280;57146;48.140;16.304;2023-06-10T00:28:09;99001.19;;;15.20;98.78
69855;BME280;57146;48.140;16.304;2023-06-10T00:30:36;99000.41;;;15.20;98.85
69855;BME280;57146;48.140;16.304;2023-06-10T00:33:03;99006.38;;;15.17;99.30
69855;BME280;57146;48.140;16.304;2023-06-10T00:35:30;99006.03;;;15.18;99.42
69855;BME280;57146;48.140;16.304;2023-06-10T00:37:59;98998.81;;;15.31;98.91
69855;BME280;57146;48.140;16.304;2023-06-10T00:40:26;99005.44;;;15.37;98.58
69855;BME280;57146;48.140;16.304;2023-06-10T00:42:52;99003.31;;;15.43;97.72
69855;BME280;57146;48.140;16.304;2023-06-10T00:45:20;99010.34;;;15.23;99.17
69855;BME280;57146;48.140;16.304;2023-06-10T00:47:47;99010.34;;;15.23;98.73
69855;BME280;57146;48.140;16.304;2023-06-10T00:50:14;99008.78;;;15.22;99.11
69855;BME280;57146;48.140;16.304;2023-06-10T00:52:42;99008.50;;;15.39;98.32
69855;BME280;57146;48.140;16.304;2023-06-10T00:55:09;99011.53;;;15.25;98.29
69855;BME280;57146;48.140;16.304;2023-06-10T00:57:36;99019.59;;;15.29;98.20
69855;BME280;57146;48.140;16.304;2023-06-10T01:00:03;99015.56;;;15.19;98.71
69855;BME280;57146;48.140;16.304;2023-06-10T01:02:32;99011.03;;;15.20;99.05
69855;BME280;57146;48.140;16.304;2023-06-10T01:05:00;99015.34;;;15.12;98.49
69855;BME280;57146;48.140;16.304;2023-06-10T01:10:20;99020.25;;;15.26;97.98
69855;BME280;57146;48.140;16.304;2023-06-10T01:13:03;99020.81;;;14.91;99.70
69855;BME280;57146;48.140;16.304;2023-06-10T01:15:33;99027.28;;;14.94;100.00
69855;BME280;57146;48.140;16.304;2023-06-10T01:18:07;99029.41;;;14.88;100.00
69855;BME280;57146;48.140;16.304;2023-06-10T01:20:36;99023.91;;;14.69;100.00
69855;BME280;57146;48.140;16.304;2023-06-10T01:23:03;99027.63;;;14.43;100.00
69855;BME280;57146;48.140;16.304;2023-06-10T01:25:30;99032.41;;;14.50;100.00
69855;BME280;57146;48.140;16.304;2023-06-10T01:28:22;99033.28;;;14.54;100.00
69855;BME280;57146;48.140;16.304;2023-06-10T01:31:00;99031.94;;;14.48;100.00
69855;BME280;57146;48.140;16.304;2023-06-10T01:33:35;99033.19;;;14.50;100.00
69855;BME280;57146;48.140;16.304;2023-06-10T01:36:03;99034.25;;;14.37;100.00
69855;BME280;57146;48.140;16.304;2023-06-10T01:38:33;99033.03;;;14.47;100.00
69855;BME280;57146;48.140;16.304;2023-06-10T01:41:03;99035.94;;;14.54;100.00
69855;BME280;57146;48.140;16.304;2023-06-10T01:43:33;99026.22;;;14.58;100.00
69855;BME280;57146;48.140;16.304;2023-06-10T01:46:00;99029.22;;;14.56;100.00
69855;BME280;57146;48.140;16.304;2023-06-10T01:48:29;99032.75;;;14.60;100.00
69855;BME280;57146;48.140;16.304;2023-06-10T01:50:56;99037.50;;;14.67;100.00
69855;BME280;57146;48.140;16.304;2023-06-10T01:53:22;99030.75;;;14.57;100.00
69855;BME280;57146;48.140;16.304;2023-06-10T01:55:50;99030.66;;;14.66;100.00
69855;BME280;57146;48.140;16.304;2023-06-10T01:58:16;99028.34;;;14.52;100.00
69855;BME280;57146;48.140;16.304;2023-06-10T02:00:44;99026.31;;;14.49;100.00
69855;BME280;57146;48.140;16.304;2023-06-10T02:03:10;99028.94;;;14.37;100.00
69855;BME280;57146;48.140;16.304;2023-06-10T02:05:37;99040.34;;;14.37;100.00
69855;BME280;57146;48.140;16.304;2023-06-10T02:08:05;99030.22;;;14.52;100.00
69855;BME280;57146;48.140;16.304;2023-06-10T02:10:32;99037.16;;;14.56;100.00
69855;BME280;57146;48.140;16.304;2023-06-10T02:12:59;99037.38;;;14.64;100.00
69855;BME280;57146;48.140;16.304;2023-06-10T02:15:30;99044.00;;;14.70;100.00
69855;BME280;57146;48.140;16.304;2023-06-10T02:17:57;99046.63;;;14.82;100.00
69855;BME280;57146;48.140;16.304;2023-06-10T02:20:24;99044.88;;;14.86;100.00
69855;BME280;57146;48.140;16.304;2023-06-10T02:22:51;99043.88;;;14.91;100.00
69855;BME280;57146;48.140;16.304;2023-06-10T02:25:18;99041.34;;;14.94;100.00
69855;BME280;57146;48.140;16.304;2023-06-10T02:27:45;99047.06;;;15.08;100.00
69855;BME280;57146;48.140;16.304;2023-06-10T02:30:12;99040.09;;;15.04;100.00
69855;BME280;57146;48.140;16.304;2023-06-10T02:32:39;99044.84;;;15.11;100.00
69855;BME280;57146;48.140;16.304;2023-06-10T02:35:06;99038.53;;;15.15;100.00
69855;BME280;57146;48.140;16.304;2023-06-10T02:37:34;99038.63;;;15.19;100.00
69855;BME280;57146;48.140;16.304;2023-06-10T02:40:01;99035.97;;;15.19;100.00
69855;BME280;57146;48.140;16.304;2023-06-10T02:42:28;99034.53;;;15.21;100.00
69855;BME280;57146;48.140;16.304;2023-06-10T02:44:55;99032.22;;;15.20;100.00
69855;BME280;57146;48.140;16.304;2023-06-10T02:47:34;99025.47;;;15.22;100.00
69855;BME280;57146;48.140;16.304;2023-06-10T02:50:01;99034.84;;;15.32;100.00
69855;BME280;57146;48.140;16.304;2023-06-10T02:52:30;99038.03;;;15.38;100.00
69855;BME280;57146;48.140;16.304;2023-06-10T02:54:57;99046.69;;;15.50;100.00
69855;BME280;57146;48.140;16.304;2023-06-10T02:57:24;99040.78;;;15.41;100.00
69855;BME280;57146;48.140;16.304;2023-06-10T02:59:51;99039.91;;;15.37;100.00
69855;BME280;57146;48.140;16.304;2023-06-10T03:02:18;99043.75;;;15.40;100.00
69855;BME280;57146;48.140;16.304;2023-06-10T03:04:49;99045.66;;;15.39;100.00
69855;BME280;57146;48.140;16.304;2023-06-10T03:07:18;99042.13;;;15.35;100.00
69855;BME280;57146;48.140;16.304;2023-06-10T03:09:46;99044.09;;;15.38;100.00
69855;BME280;57146;48.140;16.304;2023-06-10T03:12:14;99051.25;;;15.50;100.00
69855;BME280;57146;48.140;16.304;2023-06-10T03:14:45;99048.50;;;15.46;100.00
69855;BME280;57146;48.140;16.304;2023-06-10T03:17:12;99049.25;;;15.47;100.00
69855;BME280;57146;48.140;16.304;2023-06-10T03:19:41;99054.25;;;15.48;100.00
69855;BME280;57146;48.140;16.304;2023-06-10T03:22:10;99041.19;;;15.55;100.00
69855;BME280;57146;48.140;16.304;2023-06-10T03:24:50;99049.44;;;15.66;100.00
69855;BME280;57146;48.140;16.304;2023-06-10T03:27:18;99040.81;;;15.69;100.00
69855;BME280;57146;48.140;16.304;2023-06-10T03:29:49;99037.50;;;15.72;100.00
69855;BME280;57146;48.140;16.304;2023-06-10T03:32:17;99049.63;;;15.73;100.00
69855;BME280;57146;48.140;16.304;2023-06-10T03:34:44;99034.50;;;15.74;100.00
69855;BME280;57146;48.140;16.304;2023-06-10T03:37:12;99041.00;;;15.76;100.00
69855;BME280;57146;48.140;16.304;2023-06-10T03:39:40;99044.06;;;15.78;100.00
69855;BME280;57146;48.140;16.304;2023-06-10T03:42:08;99051.47;;;15.85;100.00
69855;BME280;57146;48.140;16.304;2023-06-10T03:44:35;99045.56;;;15.92;100.00
69855;BME280;57146;48.140;16.304;2023-06-10T03:47:02;99049.75;;;15.93;100.00
69855;BME280;57146;48.140;16.304;2023-06-10T03:49:30;99053.34;;;16.00;100.00
69855;BME280;57146;48.140;16.304;2023-06-10T03:52:00;99052.34;;;16.05;100.00
69855;BME280;57146;48.140;16.304;2023-06-10T03:54:28;99050.88;;;16.08;100.00
69855;BME280;57146;48.140;16.304;2023-06-10T03:56:55;99055.09;;;16.09;100.00
69855;BME280;57146;48.140;16.304;2023-06-10T03:59:22;99055.97;;;16.13;100.00
69855;BME280;57146;48.140;16.304;2023-06-10T04:01:49;99057.16;;;16.15;100.00
69855;BME280;57146;48.140;16.304;2023-06-10T04:04:16;99057.50;;;16.14;100.00
69855;BME280;57146;48.140;16.304;2023-06-10T04:06:44;99057.00;;;16.08;100.00
69855;BME280;57146;48.140;16.304;2023-06-10T04:09:11;99065.56;;;16.17;100.00
69855;BME280;57146;48.140;16.304;2023-06-10T04:11:39;99063.06;;;16.24;100.00
69855;BME280;57146;48.140;16.304;2023-06-10T04:14:07;99061.19;;;16.25;100.00
69855;BME280;57146;48.140;16.304;2023-06-10T04:16:35;99060.09;;;16.26;100.00
69855;BME280;57146;48.140;16.304;2023-06-10T04:19:02;99061.28;;;16.28;100.00
69855;BME280;57146;48.140;16.304;2023-06-10T04:21:30;99064.59;;;16.25;100.00
69855;BME280;57146;48.140;16.304;2023-06-10T04:23:56;99061.63;;;16.27;100.00
69855;BME280;57146;48.140;16.304;2023-06-10T04:26:24;99067.44;;;16.33;99.98
69855;BME280;57146;48.140;16.304;2023-06-10T04:28:51;99069.75;;;16.34;99.99
69855;BME280;57146;48.140;16.304;2023-06-10T04:31:18;99069.94;;;16.41;99.93
69855;BME280;57146;48.140;16.304;2023-06-10T04:33:46;99067.09;;;16.34;100.00
69855;BME280;57146;48.140;16.304;2023-06-10T04:36:14;99063.34;;;16.35;100.00
69855;BME280;57146;48.140;16.304;2023-06-10T04:38:41;99065.22;;;16.35;100.00
69855;BME280;57146;48.140;16.304;2023-06-10T04:41:08;99061.03;;;16.34;100.00
69855;BME280;57146;48.140;16.304;2023-06-10T04:43:36;99057.59;;;16.33;100.00
69855;BME280;57146;48.140;16.304;2023-06-10T04:46:04;99053.31;;;16.44;100.00
69855;BME280;57146;48.140;16.304;2023-06-10T04:48:35;99050.38;;;16.49;99.84
69855;BME280;57146;48.140;16.304;2023-06-10T04:51:03;99048.16;;;16.51;100.00
69855;BME280;57146;48.140;16.304;2023-06-10T04:53:31;99053.22;;;16.57;99.19
69855;BME280;57146;48.140;16.304;2023-06-10T04:55:58;99060.50;;;16.60;98.50
69855;BME280;57146;48.140;16.304;2023-06-10T04:58:25;99057.16;;;16.63;98.59
69855;BME280;57146;48.140;16.304;2023-06-10T05:00:52;99056.03;;;16.64;98.55
69855;BME280;57146;48.140;16.304;2023-06-10T05:03:18;99062.38;;;16.59;98.52
69855;BME280;57146;48.140;16.304;2023-06-10T05:05:46;99053.13;;;16.53;98.79
69855;BME280;57146;48.140;16.304;2023-06-10T05:08:13;99055.78;;;16.53;99.09
69855;BME280;57146;48.140;16.304;2023-06-10T05:10:39;99060.34;;;16.52;98.74
69855;BME280;57146;48.140;16.304;2023-06-10T05:13:06;99054.25;;;16.52;99.92
69855;BME280;57146;48.140;16.304;2023-06-10T05:15:33;99056.31;;;16.59;99.13
69855;BME280;57146;48.140;16.304;2023-06-10T05:18:00;99052.59;;;16.63;99.03
69855;BME280;57146;48.140;16.304;2023-06-10T05:20:28;99052.34;;;16.68;98.63
69855;BME280;57146;48.140;16.304;2023-06-10T05:22:55;99053.91;;;16.69;98.52
69855;BME280;57146;48.140;16.304;2023-06-10T05:25:22;99053.66;;;16.74;98.91
69855;BME280;57146;48.140;16.304;2023-06-10T05:27:48;99067.88;;;16.82;97.27
69855;BME280;57146;48.140;16.304;2023-06-10T05:30:15;99065.28;;;16.86;96.71
69855;BME280;57146;48.140;16.304;2023-06-10T05:32:42;99069.84;;;16.85;96.73
69855;BME280;57146;48.140;16.304;2023-06-10T05:35:09;99063.06;;;16.88;96.34
69855;BME280;57146;48.140;16.304;2023-06-10T05:37:37;99068.31;;;16.84;96.54
69855;BME280;57146;48.140;16.304;2023-06-10T05:40:04;99061.53;;;16.87;97.04
69855;BME280;57146;48.140;16.304;2023-06-10T05:42:31;99064.53;;;16.85;97.18
69855;BME280;57146;48.140;16.304;2023-06-10T05:44:58;99074.53;;;16.92;96.56
69855;BME280;57146;48.140;16.304;2023-06-10T05:47:25;99075.66;;;16.91;96.03
69855;BME280;57146;48.140;16.304;2023-06-10T05:49:52;99066.50;;;16.88;96.75
69855;BME280;57146;48.140;16.304;2023-06-10T05:52:19;99074.53;;;16.92;96.38
69855;BME280;57146;48.140;16.304;2023-06-10T05:54:46;99076.94;;;16.97;96.42
69855;BME280;57146;48.140;16.304;2023-06-10T05:57:12;99084.50;;;16.95;96.19
69855;BME280;57146;48.140;16.304;2023-06-10T05:59:39;99087.66;;;17.01;95.78
69855;BME280;57146;48.140;16.304;2023-06-10T06:02:06;99084.50;;;16.95;95.76
69855;BME280;57146;48.140;16.304;2023-06-10T06:04:34;99084.13;;;16.96;96.19
69855;BME280;57146;48.140;16.304;2023-06-10T06:07:01;99085.69;;;16.97;95.99
69855;BME280;57146;48.140;16.304;2023-06-10T06:09:28;99082.59;;;16.95;96.22
69855;BME280;57146;48.140;16.304;2023-06-10T06:11:54;99083.19;;;17.05;95.94
69855;BME280;57146;48.140;16.304;2023-06-10T06:14:21;99085.69;;;16.97;96.62
69855;BME280;57146;48.140;16.304;2023-06-10T06:16:49;99084.94;;;16.97;96.26
69855;BME280;57146;48.140;16.304;2023-06-10T06:19:15;99092.91;;;16.97;95.78
69855;BME280;57146;48.140;16.304;2023-06-10T06:21:42;99084.84;;;16.93;95.76
69855;BME280;57146;48.140;16.304;2023-06-10T06:24:09;99086.38;;;16.94;96.59
69855;BME280;57146;48.140;16.304;2023-06-10T06:26:36;99092.47;;;16.95;96.28
69855;BME280;57146;48.140;16.304;2023-06-10T06:29:03;99089.44;;;16.96;96.33
69855;BME280;57146;48.140;16.304;2023-06-10T06:31:31;99090.56;;;16.95;95.99
69855;BME280;57146;48.140;16.304;2023-06-10T06:33:58;99098.84;;;16.90;96.50
69855;BME280;57146;48.140;16.304;2023-06-10T06:36:25;99093.50;;;16.90;96.13
69855;BME280;57146;48.140;16.304;2023-06-10T06:38:52;99096.66;;;16.96;95.95
69855;BME280;57146;48.140;16.304;2023-06-10T06:41:21;99091.78;;;16.98;95.57
69855;BME280;57146;48.140;16.304;2023-06-10T06:43:48;99096.50;;;17.05;95.33
69855;BME280;57146;48.140;16.304;2023-06-10T06:46:23;99101.03;;;17.04;95.42
69855;BME280;57146;48.140;16.304;2023-06-10T06:48:49;99093.06;;;17.04;95.73
69855;BME280;57146;48.140;16.304;2023-06-10T06:51:17;99099.56;;;17.07;95.69
69855;BME280;57146;48.140;16.304;2023-06-10T06:53:44;99096.81;;;17.03;96.46
69855;BME280;57146;48.140;16.304;2023-06-10T06:56:14;99099.06;;;17.01;95.97
69855;BME280;57146;48.140;16.304;2023-06-10T06:58:41;99101.38;;;17.03;96.10
69855;BME280;57146;48.140;16.304;2023-06-10T07:01:08;99105.16;;;17.02;96.18
69855;BME280;57146;48.140;16.304;2023-06-10T07:03:35;99102.91;;;17.04;96.04
69855;BME280;57146;48.140;16.304;2023-06-10T07:06:02;99104.38;;;17.01;96.58
69855;BME280;57146;48.140;16.304;2023-06-10T07:08:29;99121.88;;;17.02;96.72
69855;BME280;57146;48.140;16.304;2023-06-10T07:10:55;99115.09;;;17.05;96.58
69855;BME280;57146;48.140;16.304;2023-06-10T07:13:22;99110.88;;;17.04;96.00
69855;BME280;57146;48.140;16.304;2023-06-10T07:15:49;99111.84;;;17.11;95.88
69855;BME280;57146;48.140;16.304;2023-06-10T07:18:16;99111.69;;;17.04;95.99
69855;BME280;57146;48.140;16.304;2023-06-10T07:20:43;99110.72;;;17.12;95.24
69855;BME280;57146;48.140;16.304;2023-06-10T07:23:10;99111.47;;;17.13;95.00
69855;BME280;57146;48.140;16.304;2023-06-10T07:25:37;99113.84;;;17.18;95.52
69855;BME280;57146;48.140;16.304;2023-06-10T07:28:04;99112.41;;;17.20;94.96
69855;BME280;57146;48.140;16.304;2023-06-10T07:30:31;99112.16;;;17.26;94.83
69855;BME280;57146;48.140;16.304;2023-06-10T07:32:58;99109.56;;;17.29;94.11
69855;BME280;57146;48.140;16.304;2023-06-10T07:35:24;99109.19;;;17.31;94.23
69855;BME280;57146;48.140;16.304;2023-06-10T07:37:51;99110.41;;;17.33;94.11
69855;BME280;57146;48.140;16.304;2023-06-10T07:40:18;99113.22;;;17.40;94.18
69855;BME280;57146;48.140;16.304;2023-06-10T07:42:45;99108.81;;;17.48;93.59
69855;BME280;57146;48.140;16.304;2023-06-10T07:45:12;99106.91;;;17.48;92.57
69855;BME280;57146;48.140;16.304;2023-06-10T07:47:39;99109.28;;;17.54;92.72
69855;BME280;57146;48.140;16.304;2023-06-10T07:50:06;99107.81;;;17.56;93.15
69855;BME280;57146;48.140;16.304;2023-06-10T07:52:33;99111.31;;;17.60;93.08
69855;BME280;57146;48.140;16.304;2023-06-10T07:55:00;99116.31;;;17.62;92.53
69855;BME280;57146;48.140;16.304;2023-06-10T07:57:27;99117.00;;;17.59;92.57
69855;BME280;57146;48.140;16.304;2023-06-10T07:59:54;99116.31;;;17.62;92.93
69855;BME280;57146;48.140;16.304;2023-06-10T08:02:20;99123.09;;;17.59;92.00
69855;BME280;57146;48.140;16.304;2023-06-10T08:04:52;99123.22;;;17.66;91.58
69855;BME280;57146;48.140;16.304;2023-06-10T08:07:19;99122.09;;;17.67;91.34
69855;BME280;57146;48.140;16.304;2023-06-10T08:09:45;99111.19;;;17.73;91.17
69855;BME280;57146;48.140;16.304;2023-06-10T08:12:13;99108.63;;;17.76;90.03
69855;BME280;57146;48.140;16.304;2023-06-10T08:14:43;99117.88;;;17.82;90.10
69855;BME280;57146;48.140;16.304;2023-06-10T08:17:10;99119.06;;;17.85;89.37
69855;BME280;57146;48.140;16.304;2023-06-10T08:19:37;99115.56;;;17.81;89.91
69855;BME280;57146;48.140;16.304;2023-06-10T08:22:04;99122.84;;;17.84;90.41
69855;BME280;57146;48.140;16.304;2023-06-10T08:24:31;99117.88;;;17.82;90.05
69855;BME280;57146;48.140;16.304;2023-06-10T08:26:58;99111.97;;;17.92;89.40
69855;BME280;57146;48.140;16.304;2023-06-10T08:29:25;99111.97;;;17.92;89.91
69855;BME280;57146;48.140;16.304;2023-06-10T08:31:52;99119.19;;;17.92;89.84
69855;BME280;57146;48.140;16.304;2023-06-10T08:34:19;99123.41;;;17.93;89.38
69855;BME280;57146;48.140;16.304;2023-06-10T08:36:45;99119.19;;;17.92;89.29
69855;BME280;57146;48.140;16.304;2023-06-10T08:39:12;99111.97;;;17.92;89.61
69855;BME280;57146;48.140;16.304;2023-06-10T08:41:43;99119.63;;;17.94;90.05
69855;BME280;57146;48.140;16.304;2023-06-10T08:44:17;99121.44;;;17.90;90.62
69855;BME280;57146;48.140;16.304;2023-06-10T08:46:49;99132.16;;;17.93;90.58
69855;BME280;57146;48.140;16.304;2023-06-10T08:49:18;99120.22;;;18.07;89.28
69855;BME280;57146;48.140;16.304;2023-06-10T08:51:48;99127.50;;;18.10;89.19
69855;BME280;57146;48.140;16.304;2023-06-10T08:54:25;99127.94;;;18.12;88.86
69855;BME280;57146;48.140;16.304;2023-06-10T08:56:55;99129.84;;;18.11;88.57
69855;BME280;57146;48.140;16.304;2023-06-10T08:59:25;99118.41;;;18.11;88.72
69855;BME280;57146;48.140;16.304;2023-06-10T09:01:53;99122.31;;;18.17;88.39
69855;BME280;57146;48.140;16.304;2023-06-10T09:04:20;99124.22;;;18.16;87.44
69855;BME280;57146;48.140;16.304;2023-06-10T09:06:49;99126.09;;;18.16;88.52
69855;BME280;57146;48.140;16.304;2023-06-10T09:09:17;99116.91;;;18.13;89.04
69855;BME280;57146;48.140;16.304;2023-06-10T09:11:44;99125.28;;;18.12;89.55
69855;BME280;57146;48.140;16.304;2023-06-10T09:14:11;99124.97;;;18.17;89.16
69855;BME280;57146;48.140;16.304;2023-06-10T09:16:39;99123.63;;;18.27;88.97
69855;BME280;57146;48.140;16.304;2023-06-10T09:19:07;99126.47;;;18.37;87.11
69855;BME280;57146;48.140;16.304;2023-06-10T09:21:34;99119.38;;;18.45;85.91
69855;BME280;57146;48.140;16.304;2023-06-10T09:24:01;99133.06;;;18.43;86.24
69855;BME280;57146;48.140;16.304;2023-06-10T09:26:29;99125.53;;;18.49;86.33
69855;BME280;57146;48.140;16.304;2023-06-10T09:29:07;99130.91;;;18.53;86.11
69855;BME280;57146;48.140;16.304;2023-06-10T09:31:36;99132.59;;;18.61;85.80
69855;BME280;57146;48.140;16.304;2023-06-10T09:36:38;99129.66;;;18.70;84.39
69855;BME280;57146;48.140;16.304;2023-06-10T09:39:13;99132.84;;;18.75;83.86
69855;BME280;57146;48.140;16.304;2023-06-10T09:41:41;99130.94;;;18.76;83.59
69855;BME280;57146;48.140;16.304;2023-06-10T09:44:17;99126.66;;;18.71;83.80
69855;BME280;57146;48.140;16.304;2023-06-10T09:46:46;99136.13;;;18.69;85.93
69855;BME280;57146;48.140;16.304;2023-06-10T09:49:13;99134.72;;;18.75;84.58
69855;BME280;57146;48.140;16.304;2023-06-10T09:51:54;99128.38;;;18.83;83.96
69855;BME280;57146;48.140;16.304;2023-06-10T09:54:22;99123.22;;;18.94;83.43
69855;BME280;57146;48.140;16.304;2023-06-10T09:56:51;99129.41;;;19.01;83.64
69855;BME280;57146;48.140;16.304;2023-06-10T09:59:29;99115.03;;;19.09;82.31
69855;BME280;57146;48.140;16.304;2023-06-10T10:01:56;99113.81;;;19.30;82.10
69855;BME280;57146;48.140;16.304;2023-06-10T10:04:24;99117.22;;;19.57;80.99
69855;BME280;57146;48.140;16.304;2023-06-10T10:06:55;99107.00;;;19.63;78.74
69855;BME280;57146;48.140;16.304;2023-06-10T10:09:22;99106.28;;;19.66;79.51
69855;BME280;57146;48.140;16.304;2023-06-10T10:11:49;99109.69;;;19.66;80.00
69855;BME280;57146;48.140;16.304;2023-06-10T10:14:18;99107.84;;;19.70;76.81
69855;BME280;57146;48.140;16.304;2023-06-10T10:16:47;99104.53;;;19.80;76.28
69855;BME280;57146;48.140;16.304;2023-06-10T10:19:20;99098.88;;;19.85;78.53
69855;BME280;57146;48.140;16.304;2023-06-10T10:21:53;99095.47;;;19.89;78.64
69855;BME280;57146;48.140;16.304;2023-06-10T10:24:21;99100.50;;;19.97;78.20
69855;BME280;57146;48.140;16.304;2023-06-10T10:26:50;99098.97;;;19.96;76.39
69855;BME280;57146;48.140;16.304;2023-06-10T10:29:30;99099.34;;;19.95;79.45
69855;BME280;57146;48.140;16.304;2023-06-10T10:31:59;99096.28;;;19.93;77.53
69855;BME280;57146;48.140;16.304;2023-06-10T10:34:42;99095.59;;;19.99;77.80
69855;BME280;57146;48.140;16.304;2023-06-10T10:37:11;99099.41;;;20.02;76.03
69855;BME280;57146;48.140;16.304;2023-06-10T10:39:38;99097.16;;;20.04;75.09
69855;BME280;57146;48.140;16.304;2023-06-10T10:42:06;99100.97;;;20.03;75.69
69855;BME280;57146;48.140;16.304;2023-06-10T10:44:33;99090.66;;;20.05;75.00
69855;BME280;57146;48.140;16.304;2023-06-10T10:47:03;99089.56;;;20.09;77.00
69855;BME280;57146;48.140;16.304;2023-06-10T10:49:30;99085.44;;;20.19;74.97
69855;BME280;57146;48.140;16.304;2023-06-10T10:52:00;99085.16;;;20.28;74.84
69855;BME280;57146;48.140;16.304;2023-06-10T10:57:15;99073.84;;;20.49;74.40
69855;BME280;57146;48.140;16.304;2023-06-10T11:05:00;99073.78;;;20.90;74.64
69855;BME280;57146;48.140;16.304;2023-06-10T11:07:37;99069.63;;;20.96;74.17
69855;BME280;57146;48.140;16.304;2023-06-10T11:10:09;99059.25;;;20.91;73.50
69855;BME280;57146;48.140;16.304;2023-06-10T11:15:13;99059.91;;;20.70;72.78
69855;BME280;57146;48.140;16.304;2023-06-10T11:18:15;99048.78;;;20.61;72.09
69855;BME280;57146;48.140;16.304;2023-06-10T11:26:14;99038.72;;;20.47;73.66
69855;BME280;57146;48.140;16.304;2023-06-10T11:29:01;99036.47;;;20.52;75.02
69855;BME280;57146;48.140;16.304;2023-06-10T11:31:33;99036.97;;;20.69;72.21
69855;BME280;57146;48.140;16.304;2023-06-10T11:34:04;99038.56;;;20.80;72.85
69855;BME280;57146;48.140;16.304;2023-06-10T11:36:42;99032.19;;;20.99;71.45
69855;BME280;57146;48.140;16.304;2023-06-10T11:39:09;99036.50;;;21.25;71.42
69855;BME280;57146;48.140;16.304;2023-06-10T11:41:38;99026.31;;;21.49;70.73
69855;BME280;57146;48.140;16.304;2023-06-10T11:44:10;99021.75;;;21.67;70.24
69855;BME280;57146;48.140;16.304;2023-06-10T11:46:38;99024.06;;;21.80;69.05
69855;BME280;57146;48.140;16.304;2023-06-10T11:49:06;99010.31;;;21.88;67.82
69855;BME280;57146;48.140;16.304;2023-06-10T11:51:38;99019.47;;;21.84;67.80
69855;BME280;57146;48.140;16.304;2023-06-10T11:54:08;99023.66;;;21.70;68.02
69855;BME280;57146;48.140;16.304;2023-06-10T11:56:35;99022.47;;;21.54;68.70
69855;BME280;57146;48.140;16.304;2023-06-10T11:59:04;99016.31;;;21.39;68.60
69855;BME280;57146;48.140;16.304;2023-06-10T12:01:33;99012.44;;;21.29;69.10
69855;BME280;57146;48.140;16.304;2023-06-10T12:04:03;99008.59;;;21.26;69.44
69855;BME280;57146;48.140;16.304;2023-06-10T12:06:49;98997.88;;;21.26;70.00
69855;BME280;57146;48.140;16.304;2023-06-10T12:09:27;98996.31;;;21.18;72.24
69855;BME280;57146;48.140;16.304;2023-06-10T12:11:58;99001.72;;;21.25;70.97
69855;BME280;57146;48.140;16.304;2023-06-10T12:14:55;98994.91;;;21.46;70.61
69855;BME280;57146;48.140;16.304;2023-06-10T12:20:04;98996.44;;;21.40;69.33
69855;BME280;57146;48.140;16.304;2023-06-10T12:22:39;98990.34;;;21.50;68.21
69855;BME280;57146;48.140;16.304;2023-06-10T12:25:07;98991.13;;;21.65;67.15
69855;BME280;57146;48.140;16.304;2023-06-10T12:27:36;98995.34;;;21.84;66.46
69855;BME280;57146;48.140;16.304;2023-06-10T12:30:05;98991.53;;;21.85;67.41
69855;BME280;57146;48.140;16.304;2023-06-10T12:32:43;98994.59;;;21.90;67.32
69855;BME280;57146;48.140;16.304;2023-06-10T12:35:12;98988.47;;;21.93;66.76
69855;BME280;57146;48.140;16.304;2023-06-10T12:37:40;98990.41;;;21.93;66.14
69855;BME280;57146;48.140;16.304;2023-06-10T12:40:10;98983.50;;;21.74;66.57
69855;BME280;57146;48.140;16.304;2023-06-10T12:42:37;98982.72;;;21.81;66.56
69855;BME280;57146;48.140;16.304;2023-06-10T12:45:05;98978.13;;;21.78;67.81
69855;BME280;57146;48.140;16.304;2023-06-10T12:47:34;98973.16;;;21.72;67.64
69855;BME280;57146;48.140;16.304;2023-06-10T12:50:02;98973.53;;;21.67;68.01
69855;BME280;57146;48.140;16.304;2023-06-10T12:52:30;98982.31;;;21.57;67.70
69855;BME280;57146;48.140;16.304;2023-06-10T12:54:57;98976.56;;;21.51;67.89
69855;BME280;57146;48.140;16.304;2023-06-10T12:57:24;98970.06;;;21.45;67.86
69855;BME280;57146;48.140;16.304;2023-06-10T12:59:51;98974.94;;;21.25;68.92
69855;BME280;57146;48.140;16.304;2023-06-10T13:02:21;98979.84;;;21.13;69.75
69855;BME280;57146;48.140;16.304;2023-06-10T13:04:48;98978.28;;;20.97;73.07
69855;BME280;57146;48.140;16.304;2023-06-10T13:07:17;98987.41;;;20.89;75.54
69855;BME280;57146;48.140;16.304;2023-06-10T13:09:45;99009.78;;;20.60;85.38
69855;BME280;57146;48.140;16.304;2023-06-10T13:12:12;99024.13;;;20.37;86.24
69855;BME280;57146;48.140;16.304;2023-06-10T13:14:42;99022.72;;;20.06;89.36
69855;BME280;57146;48.140;16.304;2023-06-10T13:17:09;99019.19;;;19.95;90.79
69855;BME280;57146;48.140;16.304;2023-06-10T13:19:37;99009.91;;;19.81;91.07